WetterOnline ( https://www.wetteronline.de )

Wetter aktuell Südheide

Aktuelles Wetter: Friesoythe-Altenoythe (6m)

6-stündlich | Neueste Meldungen
Ortszeit Temperatur Wetter
Sa, 16.01. 7:00 -0.4° C bedeckt
Sa, 16.01. 1:00 -0.5° C bedeckt
Fr, 15.01. 19:00 -0.3° C bedeckt
Fr, 15.01. 13:00 -0.0° C bedeckt
Fr, 15.01. 7:00 0.6° C Sprühregen
Fr, 15.01. 1:00 0.3° C bedeckt
Do, 14.01. 19:00 0.4° C bedeckt
Do, 14.01. 13:00 1.2° C bedeckt
Ortszeit Temperatur Wetter
Sa, 16.01. 9:30 -0.3° C bedeckt
Sa, 16.01. 9:20 -0.3° C bedeckt
Sa, 16.01. 9:10 -0.3° C bedeckt
Sa, 16.01. 9:00 -0.4° C bedeckt
Sa, 16.01. 8:50 -0.4° C bedeckt
Sa, 16.01. 8:40 -0.4° C bedeckt
Sa, 16.01. 8:30 -0.4° C bedeckt
Sa, 16.01. 8:00 -0.4° C bedeckt
Sa, 16.01. 7:30 -0.4° C bedeckt
Sa, 16.01. 7:00 -0.4° C bedeckt
Sa, 16.01. 6:30 -0.4° C bedeckt
Ortszeit Relative Feuchte Sichtweite
Sa, 16.01. 7:00 86% 29 km
Sa, 16.01. 1:00 84% 30 km
Fr, 15.01. 19:00 78% 55 km
Fr, 15.01. 13:00 79% 30 km
Fr, 15.01. 7:00 94% 10 km
Fr, 15.01. 1:00 94% 17 km
Do, 14.01. 19:00 89% 35 km
Do, 14.01. 13:00 83% 40 km
Ortszeit Relative Feuchte Sichtweite
Sa, 16.01. 9:30 85% 28 km
Sa, 16.01. 9:20 85% -
Sa, 16.01. 9:10 86% -
Sa, 16.01. 9:00 85% 26 km
Sa, 16.01. 8:50 85% -
Sa, 16.01. 8:40 86% -
Sa, 16.01. 8:30 87% 24 km
Sa, 16.01. 8:00 86% 24 km
Sa, 16.01. 7:30 86% 25 km
Sa, 16.01. 7:00 86% 29 km
Sa, 16.01. 6:30 84% 30 km
Ortszeit Niederschlagsmenge Niederschlagsart
Sa, 16.01. 7:00 0.1 l/m2 in 12 Std. Schnee
Sa, 16.01. 1:00 0.0 l/m2 in 6 Std. -
Fr, 15.01. 19:00 0.6 l/m2 in 12 Std. -
Fr, 15.01. 13:00 0.6 l/m2 in 6 Std. Schnee, Sprühregen
Fr, 15.01. 7:00 0.1 l/m2 in 12 Std. Schnee, Sprühregen
Fr, 15.01. 1:00 0.0 l/m2 in 6 Std. -
Do, 14.01. 19:00 0.0 l/m2 in 12 Std. -
Do, 14.01. 13:00 0.0 l/m2 in 6 Std. -
Ortszeit Niederschlagsmenge Niederschlagsart
Sa, 16.01. 9:30 0.0 l/m2 in 1 Std. -
Sa, 16.01. 9:20 keine Meldung -
Sa, 16.01. 9:10 keine Meldung -
Sa, 16.01. 9:00 0.0 l/m2 in 1 Std. -
Sa, 16.01. 8:50 keine Meldung -
Sa, 16.01. 8:40 keine Meldung -
Sa, 16.01. 8:30 0.0 l/m2 in 1 Std. -
Sa, 16.01. 8:00 0.0 l/m2 in 1 Std. -
Sa, 16.01. 7:30 0.0 l/m2 in 1 Std. -
Sa, 16.01. 7:00 0.0 l/m2 in 1 Std. Schnee
Sa, 16.01. 6:30 0.0 l/m2 in 1 Std. -
Ortszeit Stärke Spitze Richtung
km/h Bft. km/h Grad Sektor
Sa, 16.01. 7:00 7 2 11 170° S
Sa, 16.01. 1:00 0 0 11 - -
Fr, 15.01. 19:00 7 2 32 340° N
Fr, 15.01. 13:00 9 2 28 360° N
Fr, 15.01. 7:00 7 2 14 350° N
Fr, 15.01. 1:00 4 1 14 40° NO
Do, 14.01. 19:00 4 1 18 30° NO
Do, 14.01. 13:00 11 2 22 50° NO
Ortszeit Stärke Spitze Richtung
km/h Bft. km/h Grad Sektor
Sa, 16.01. 9:30 9 2 15 170° S
Sa, 16.01. 9:20 9 2 - 170° S
Sa, 16.01. 9:10 9 2 - 170° S
Sa, 16.01. 9:00 13 3 17 180° S
Sa, 16.01. 8:50 13 3 - 180° S
Sa, 16.01. 8:40 7 2 - 170° S
Sa, 16.01. 8:30 7 2 14 160° S
Sa, 16.01. 8:00 9 2 13 170° S
Sa, 16.01. 7:30 7 2 11 170° S
Sa, 16.01. 7:00 7 2 11 170° S
Sa, 16.01. 6:30 9 2 11 190° S
Ortszeit Untergrenze Bedeckung Gattung
total tief tief mittel hoch
Sa, 16.01. 7:00 1170 m 8/8 8/8 - - -
Sa, 16.01. 1:00 750 m 8/8 8/8 - - -
Fr, 15.01. 19:00 1140 m 8/8 8/8 - - -
Fr, 15.01. 13:00 1170 m 8/8 8/8 - - -
Fr, 15.01. 7:00 750 m 8/8 8/8 - - -
Fr, 15.01. 1:00 1200 m 8/8 8/8 - - -
Do, 14.01. 19:00 990 m 8/8 8/8 - - -
Do, 14.01. 13:00 1020 m 8/8 8/8 - - -
Ortszeit Bedeckungsgrad in Achtel und Wolkenuntergrenze
Sa, 16.01. 9:30 8(1230m)
Sa, 16.01. 9:20 8(1230m)
Sa, 16.01. 9:10 8(1230m)
Sa, 16.01. 9:00 8(1260m)
Sa, 16.01. 8:50 8(1260m)
Sa, 16.01. 8:40 8(1260m)
Sa, 16.01. 8:30 8(1260m)
Sa, 16.01. 8:00 8(1230m)
Sa, 16.01. 7:30 8(1200m)
Sa, 16.01. 7:00 8(1170m)
Sa, 16.01. 6:30 8(1200m)
Ortszeit Luftdruck NN (hPa) Tendenz (hPa in 3 Std.)
Sa, 16.01. 7:00 1027 - 1,6
Sa, 16.01. 1:00 1029 - 0,5
Fr, 15.01. 19:00 1030 + 0,7
Fr, 15.01. 13:00 1028 + 1,1
Fr, 15.01. 7:00 1026 + 1,1
Fr, 15.01. 1:00 1024 + 0,7
Do, 14.01. 19:00 1023 + 0,8
Do, 14.01. 13:00 1022 + 1,0
Ortszeit Luftdruck NN (hPa) Tendenz (hPa in 3 Std.)
Sa, 16.01. 9:30 1026 - 1,3
Sa, 16.01. 9:20 1026 keine Meldung
Sa, 16.01. 9:10 1026 keine Meldung
Sa, 16.01. 9:00 1026 - 1,5
Sa, 16.01. 8:50 1026 keine Meldung
Sa, 16.01. 8:40 1026 keine Meldung
Sa, 16.01. 8:30 1026 - 1,6
Sa, 16.01. 8:00 1026 - 1,9
Sa, 16.01. 7:30 1027 - 1,5
Sa, 16.01. 7:00 1027 - 1,6
Sa, 16.01. 6:30 1027 - 1,5
Ortszeit Schneehöhe (cm)
Sa, 16.01. 7:00 0
Sa, 16.01. 1:00 0
Fr, 15.01. 19:00 0
Fr, 15.01. 13:00 0
Fr, 15.01. 7:00 0
Fr, 15.01. 1:00 0
Do, 14.01. 19:00 0
Do, 14.01. 13:00 0
Ortszeit Schneehöhe (cm)
Sa, 16.01. 9:30 0
Sa, 16.01. 9:20 0
Sa, 16.01. 9:10 0
Sa, 16.01. 9:00 0
Sa, 16.01. 8:50 0
Sa, 16.01. 8:40 0
Sa, 16.01. 8:30 0
Sa, 16.01. 8:00 0
Sa, 16.01. 7:30 0
Sa, 16.01. 7:00 0
Sa, 16.01. 6:30 0
Link zu dieser Seite / Seite empfehlen

Das Wetter in ...